Monday, October 23, 2017, 1:17 PM EDT
Back to Local

KLBE, Latrobe / Westmorland

Location: Latrobe, PA, United States Lat: 40.283
Local Time: 1:17 PM EDT (17:17 GMT) Lon: -79.4
Time Zone: US/Eastern Elev: 1184 ft

Show me the last for .
Show Decoded

2017-10-23 12:45 METAR KLBE 231645Z 16006KT 10SM BKN120 19/14 A2999 =
2017-10-23 11:45 METAR KLBE 231545Z 20010KT 6SM -RA SCT031 OVC045 18/14 A3005 =
2017-10-23 10:45 METAR KLBE 231445Z 24010KT 10SM BKN100 OVC200 19/13 A3007 =
2017-10-23 09:50 METAR KLBE 231350Z 16005KT 10SM SCT070 18/13 A3007 =
2017-10-23 08:50 METAR KLBE 231250Z 15005KT 10SM BKN100 18/12 A3010 =
2017-10-23 07:50 METAR KLBE 231150Z 15005KT 10SM BKN070 16/12 A3011 =
2017-10-23 06:50 METAR KLBE 231050Z 14005KT 10SM SKC 16/12 A3012 =
2017-10-23 05:55 METAR KLBE 230955Z AUTO 13008KT 10SM CLR 16/12 A3013 RMK AO2 =
2017-10-23 05:35 METAR KLBE 230935Z AUTO 12006KT 10SM CLR 16/12 A3013 RMK AO2 =
2017-10-23 05:15 METAR KLBE 230915Z AUTO 11006KT 10SM CLR 16/12 A3014 RMK AO2 =
2017-10-23 04:55 METAR KLBE 230855Z AUTO 16003KT 10SM CLR 17/12 A3015 RMK AO2 =
2017-10-23 04:35 METAR KLBE 230835Z AUTO 17003KT 10SM CLR 16/12 A3015 RMK AO2 =
2017-10-23 04:15 METAR KLBE 230815Z AUTO 00000KT 10SM CLR 17/12 A3015 RMK AO2 =
2017-10-23 03:55 METAR KLBE 230755Z AUTO 20004KT 10SM CLR 17/12 A3016 RMK AO2 =
2017-10-23 03:35 METAR KLBE 230735Z AUTO 19004KT 10SM CLR 17/12 A3017 RMK AO2 =
2017-10-23 03:15 METAR KLBE 230715Z AUTO 16006KT 10SM CLR 17/12 A3017 RMK AO2 =
2017-10-23 02:55 METAR KLBE 230655Z AUTO 14004KT 10SM CLR 17/12 A3018 RMK AO2 =
2017-10-23 02:35 METAR KLBE 230635Z AUTO 16005KT 10SM CLR 17/12 A3018 RMK AO2 =
2017-10-23 02:15 METAR KLBE 230615Z AUTO 16007KT 10SM CLR 17/12 A3019 RMK AO2 =
2017-10-23 01:55 METAR KLBE 230555Z AUTO 15004KT 10SM CLR 17/12 A3019 RMK AO2 =
2017-10-23 01:35 METAR KLBE 230535Z AUTO 16003KT 10SM CLR 18/11 A3019 RMK AO2 =
2017-10-23 01:15 METAR KLBE 230515Z AUTO 14004KT 10SM CLR 18/11 A3019 RMK AO2 =
2017-10-23 00:55 METAR KLBE 230455Z AUTO 17003KT 10SM CLR 18/11 A3020 RMK AO2 =
2017-10-23 00:35 METAR KLBE 230435Z AUTO 22003KT 10SM CLR 18/11 A3020 RMK AO2 =
2017-10-23 00:15 METAR KLBE 230415Z AUTO 20004KT 10SM CLR 18/11 A3020 RMK AO2 =
2017-10-22 23:55 METAR KLBE 230355Z AUTO 18007KT 140V200 10SM CLR 18/11 A3020 RMK AO2 =
2017-10-22 23:35 METAR KLBE 230335Z AUTO 16007G15KT 130V190 10SM CLR 19/11 A3021 RMK AO2 =
2017-10-22 23:15 METAR KLBE 230315Z AUTO 14005KT 10SM CLR 19/11 A3020 RMK AO2 =
2017-10-22 22:55 METAR KLBE 230255Z AUTO 15008G14KT 10SM CLR 19/11 A3020 RMK AO2 =
2017-10-22 22:35 METAR KLBE 230235Z AUTO 14009G17KT 10SM CLR 19/11 A3020 RMK AO2 =
2017-10-22 22:15 METAR KLBE 230215Z AUTO 12011G21KT 10SM CLR 19/12 A3020 RMK AO2 =
2017-10-22 21:45 METAR KLBE 230145Z 17008KT 10SM SKC 19/12 A3022 =
2017-10-22 20:45 METAR KLBE 230045Z 17012KT 10SM SKC 20/11 A3021 =
2017-10-22 19:45 METAR KLBE 222345Z 16006G15KT 10SM SKC 20/11 A3021 =
2017-10-22 18:50 METAR KLBE 222250Z 16006KT 10SM SCT200 21/11 A3021 =
2017-10-22 17:50 METAR KLBE 222150Z 15010KT 10SM OVC180 22/11 A3020 =
2017-10-22 16:55 METAR KLBE 222055Z 15007KT 10SM SKC 24/11 A3021 =
2017-10-22 15:50 METAR KLBE 221950Z 00000KT 10SM SKC 24/11 A3023 =
2017-10-22 14:50 METAR KLBE 221850Z 00000KT 10SM SKC 24/11 A3025 =
2017-10-22 13:50 METAR KLBE 221750Z 00000KT 10SM SKC 24/10 A3027 =

Support USWX by starting your Amazon purchase here.